createdAt,value
2023-04-12T00:00:27.275Z,84.14
2023-04-12T00:02:54.953Z,84.24
2023-04-12T00:05:30.831Z,83.91
2023-04-12T00:08:00.980Z,83.33
2023-04-12T00:10:33.726Z,83.40
2023-04-12T00:13:01.031Z,83.95
2023-04-12T00:15:57.729Z,83.72
2023-04-12T00:18:25.383Z,83.67
2023-04-12T00:20:58.090Z,84.30
2023-04-12T00:23:24.725Z,83.97
2023-04-12T00:26:01.917Z,84.38
2023-04-12T00:28:31.042Z,84.17
2023-04-12T00:31:02.910Z,84.20
2023-04-12T00:33:55.121Z,84.21
2023-04-12T00:36:22.771Z,84.37
2023-04-12T00:41:42.675Z,84.40
2023-04-12T00:44:18.168Z,84.19
2023-04-12T00:46:47.186Z,84.28
2023-04-12T00:49:41.390Z,84.19
2023-04-12T00:52:14.578Z,84.10
2023-04-12T00:54:43.818Z,84.15
2023-04-12T00:57:12.683Z,84.10
2023-04-12T00:59:45.938Z,84.25
2023-04-12T01:02:12.852Z,83.95
2023-04-12T01:04:44.131Z,84.29
2023-04-12T01:07:29.395Z,85.06
2023-04-12T01:10:04.837Z,84.51
2023-04-12T01:12:46.791Z,86.31
2023-04-12T01:15:16.521Z,86.34
2023-04-12T01:17:58.160Z,86.38
2023-04-12T01:20:33.637Z,84.99
2023-04-12T01:23:14.556Z,84.17
2023-04-12T01:25:48.682Z,84.19
2023-04-12T01:28:22.569Z,84.14
2023-04-12T01:31:15.510Z,84.34
2023-04-12T01:33:45.269Z,86.72
2023-04-12T01:36:22.122Z,88.70
2023-04-12T01:38:51.984Z,87.27
2023-04-12T01:41:24.795Z,87.50
2023-04-12T01:43:52.720Z,87.11
2023-04-12T01:46:22.900Z,86.42
2023-04-12T01:52:12.765Z,88.20
2023-04-12T01:55:07.197Z,89.10
2023-04-12T01:57:36.051Z,87.66
2023-04-12T02:00:06.532Z,86.69
2023-04-12T02:02:41.099Z,86.91
2023-04-12T02:05:10.089Z,88.42
2023-04-12T02:07:40.646Z,87.55
2023-04-12T02:10:13.575Z,87.19
2023-04-12T02:12:41.262Z,88.10
2023-04-12T02:15:08.994Z,87.58
2023-04-12T02:17:37.350Z,86.92
2023-04-12T02:20:09.929Z,87.02
2023-04-12T02:22:41.704Z,87.42
2023-04-12T02:25:13.971Z,87.75
2023-04-12T02:27:48.720Z,87.40
2023-04-12T02:30:17.011Z,86.22
2023-04-12T02:32:53.770Z,85.72
2023-04-12T02:35:31.727Z,86.98
2023-04-12T02:38:13.429Z,85.76
2023-04-12T02:40:42.821Z,86.60
2023-04-12T02:43:14.675Z,85.78
2023-04-12T02:45:47.655Z,87.19
2023-04-12T02:48:25.869Z,88.29
2023-04-12T02:50:54.714Z,88.11
2023-04-12T02:53:29.766Z,88.39
2023-04-12T02:56:15.657Z,88.87
2023-04-12T02:58:44.812Z,89.08
2023-04-12T03:01:17.029Z,89.77
2023-04-12T03:04:04.933Z,88.41
2023-04-12T03:07:06.244Z,89.12
2023-04-12T03:09:47.567Z,89.64
2023-04-12T03:12:16.776Z,89.75
2023-04-12T03:14:56.690Z,89.75
2023-04-12T03:17:28.755Z,89.47
2023-04-12T03:22:58.668Z,89.12
2023-04-12T03:25:27.137Z,88.13
2023-04-12T03:28:03.694Z,87.67
2023-04-12T03:30:51.911Z,87.95
2023-04-12T03:33:22.718Z,87.91
2023-04-12T03:35:52.843Z,88.39
2023-04-12T03:38:20.676Z,88.01
2023-04-12T03:41:12.873Z,88.43
2023-04-12T03:43:42.486Z,88.32
2023-04-12T03:46:19.008Z,88.71
2023-04-12T03:49:11.472Z,88.66
2023-04-12T03:51:48.717Z,88.43
2023-04-12T03:54:18.656Z,88.08
2023-04-12T03:56:58.986Z,87.53
2023-04-12T04:03:05.114Z,87.69
2023-04-12T04:08:33.205Z,87.25
2023-04-12T04:11:01.042Z,87.01
2023-04-12T04:13:34.647Z,86.74
2023-04-12T04:16:07.362Z,86.88
2023-04-12T04:18:36.112Z,86.76
2023-04-12T04:21:05.057Z,86.96
2023-04-12T04:26:38.409Z,86.94
2023-04-12T04:29:16.708Z,86.63
2023-04-12T04:32:09.580Z,86.65
2023-04-12T04:35:08.661Z,86.38
2023-04-12T04:37:57.982Z,86.26
2023-04-12T04:40:32.354Z,86.19
2023-04-12T04:43:07.791Z,86.18
2023-04-12T04:45:43.723Z,86.46
2023-04-12T04:48:11.035Z,85.96
2023-04-12T04:50:55.657Z,86.21
2023-04-12T04:53:48.786Z,85.72
2023-04-12T04:56:23.763Z,85.58
2023-04-12T04:58:54.065Z,85.69
2023-04-12T05:01:29.357Z,85.67
2023-04-12T05:03:58.788Z,85.78
2023-04-12T05:06:28.886Z,85.14
2023-04-12T05:08:58.930Z,85.35
2023-04-12T05:11:27.243Z,85.25
2023-04-12T05:13:55.831Z,84.95
2023-04-12T05:16:28.815Z,85.31
2023-04-12T05:19:15.646Z,85.21
2023-04-12T05:21:42.785Z,84.76
2023-04-12T05:25:10.141Z,84.71
2023-04-12T05:27:45.171Z,84.58
2023-04-12T05:30:16.648Z,84.68
2023-04-12T05:32:47.185Z,84.24
2023-04-12T05:35:16.797Z,84.01
2023-04-12T05:37:44.753Z,84.36
2023-04-12T05:40:19.828Z,84.06
2023-04-12T05:42:50.626Z,83.98
2023-04-12T05:45:18.730Z,84.03
2023-04-12T05:47:46.734Z,83.77
2023-04-12T05:50:14.811Z,83.52
2023-04-12T05:52:42.696Z,82.25
2023-04-12T05:55:10.707Z,82.76
2023-04-12T05:57:41.021Z,82.32
2023-04-12T06:00:14.119Z,82.44
2023-04-12T06:02:45.383Z,82.07
2023-04-12T06:05:43.893Z,81.35
2023-04-12T06:08:12.845Z,81.66
2023-04-12T06:10:42.717Z,80.93
2023-04-12T06:13:36.687Z,81.27
2023-04-12T06:16:05.905Z,81.15
2023-04-12T06:18:33.161Z,80.91
2023-04-12T06:21:11.265Z,81.24
2023-04-12T06:23:40.689Z,79.13
2023-04-12T06:26:15.050Z,79.05
2023-04-12T06:28:44.685Z,80.03
2023-04-12T06:31:12.774Z,79.61
2023-04-12T06:33:47.328Z,79.01
2023-04-12T06:36:21.036Z,77.85
2023-04-12T06:38:50.828Z,76.95
2023-04-12T06:41:18.651Z,77.70
2023-04-12T06:43:46.675Z,77.86
2023-04-12T06:46:23.590Z,76.86
2023-04-12T06:51:47.701Z,74.78
2023-04-12T06:54:14.798Z,77.54
2023-04-12T06:56:47.822Z,76.30
2023-04-12T06:59:14.701Z,73.95
2023-04-12T07:02:11.286Z,75.06
2023-04-12T07:04:38.640Z,76.07
2023-04-12T07:10:09.329Z,75.95
2023-04-12T07:12:36.871Z,71.70
2023-04-12T07:15:05.379Z,73.41
2023-04-12T07:17:37.750Z,72.70
2023-04-12T07:20:05.119Z,71.14
2023-04-12T07:22:33.088Z,71.36
2023-04-12T07:25:00.848Z,72.65
2023-04-12T07:27:30.137Z,70.67
2023-04-12T07:29:58.841Z,73.46
2023-04-12T07:32:32.295Z,71.73
2023-04-12T07:35:00.702Z,72.93
2023-04-12T07:37:31.336Z,73.11
2023-04-12T07:39:58.711Z,71.41
2023-04-12T07:42:35.867Z,70.74
2023-04-12T07:45:03.914Z,69.81
2023-04-12T07:47:30.758Z,68.19
2023-04-12T07:49:58.934Z,68.91
2023-04-12T07:55:44.642Z,70.37
2023-04-12T08:01:02.719Z,70.62
2023-04-12T08:03:30.957Z,70.74
2023-04-12T08:05:59.175Z,70.03
2023-04-12T08:08:27.028Z,69.12
2023-04-12T08:11:07.769Z,69.70
2023-04-12T08:13:35.549Z,67.80
2023-04-12T08:16:03.184Z,68.46
2023-04-12T08:18:56.812Z,68.42
2023-04-12T08:21:53.495Z,68.26
2023-04-12T08:24:20.837Z,69.10
2023-04-12T08:27:14.786Z,68.39
2023-04-12T08:29:42.752Z,67.82
2023-04-12T08:35:05.720Z,66.53
2023-04-12T08:37:38.870Z,67.67
2023-04-12T08:40:12.678Z,67.01
2023-04-12T08:42:44.833Z,66.80
2023-04-12T08:45:13.196Z,66.97
2023-04-12T08:47:42.904Z,65.91
2023-04-12T08:50:14.077Z,65.75
2023-04-12T08:53:10.110Z,66.60
2023-04-12T08:55:38.680Z,66.08
2023-04-12T08:58:09.424Z,64.98
2023-04-12T09:00:37.404Z,65.48
2023-04-12T09:03:36.620Z,62.13
2023-04-12T09:06:05.308Z,65.35
2023-04-12T09:08:52.359Z,65.80
2023-04-12T09:11:26.708Z,63.37
2023-04-12T09:13:55.940Z,65.40
2023-04-12T09:16:36.367Z,63.16
2023-04-12T09:19:05.243Z,64.69
2023-04-12T09:21:39.642Z,66.05
2023-04-12T09:24:14.648Z,62.26
2023-04-12T09:26:42.704Z,65.12
2023-04-12T09:29:27.431Z,64.25
2023-04-12T09:32:07.529Z,65.01
2023-04-12T09:35:01.451Z,64.61
2023-04-12T09:37:31.199Z,64.52
2023-04-12T09:40:12.217Z,63.88
2023-04-12T09:42:58.945Z,63.14
2023-04-12T09:45:28.046Z,65.78
2023-04-12T09:48:01.005Z,64.40
2023-04-12T09:50:30.480Z,62.52
2023-04-12T09:53:00.604Z,62.71
2023-04-12T09:55:31.944Z,64.48
2023-04-12T09:58:09.232Z,64.21
2023-04-12T10:00:42.805Z,65.07
2023-04-12T10:03:12.371Z,64.12
2023-04-12T10:05:42.283Z,64.15
2023-04-12T10:08:15.167Z,64.38
2023-04-12T10:10:50.095Z,63.84
2023-04-12T10:13:44.355Z,64.17
2023-04-12T10:16:14.009Z,62.57
2023-04-12T10:21:34.709Z,62.82
2023-04-12T10:24:02.838Z,64.24
2023-04-12T10:26:31.533Z,62.99
2023-04-12T10:29:25.389Z,63.69
2023-04-12T10:32:22.112Z,63.03
2023-04-12T10:34:58.582Z,63.21
2023-04-12T10:38:02.064Z,64.18
2023-04-12T10:40:32.478Z,63.74
2023-04-12T10:43:18.957Z,65.06
2023-04-12T10:45:47.037Z,65.98
2023-04-12T10:48:33.025Z,64.86
2023-04-12T10:51:27.925Z,65.00
2023-04-12T10:54:07.611Z,66.69
2023-04-12T10:56:37.117Z,67.36
2023-04-12T10:59:16.973Z,67.57
2023-04-12T11:02:09.965Z,67.99
2023-04-12T11:04:38.914Z,69.61
2023-04-12T11:07:12.742Z,70.07
2023-04-12T11:12:39.036Z,70.80
2023-04-12T11:15:07.195Z,71.70
2023-04-12T11:18:01.903Z,71.66
2023-04-12T11:20:28.786Z,74.58
2023-04-12T11:23:03.222Z,75.27
2023-04-12T11:25:31.684Z,75.99
2023-04-12T11:31:20.468Z,78.40
2023-04-12T11:33:48.742Z,78.47
2023-04-12T11:36:22.612Z,78.84
2023-04-12T11:38:51.753Z,79.15
2023-04-12T11:41:18.783Z,79.89
2023-04-12T11:47:04.270Z,81.15
2023-04-12T11:49:32.956Z,80.44
2023-04-12T11:52:04.924Z,81.15
2023-04-12T11:54:34.148Z,81.41
2023-04-12T11:57:05.067Z,81.12
2023-04-12T11:59:33.954Z,81.38
2023-04-12T12:02:08.310Z,82.13
2023-04-12T12:04:50.737Z,81.87
2023-04-12T12:07:19.607Z,82.53
2023-04-12T12:09:47.032Z,82.74
2023-04-12T12:15:08.052Z,82.72
2023-04-12T12:17:41.063Z,83.46
2023-04-12T12:20:20.598Z,82.46
2023-04-12T12:23:14.607Z,83.09
2023-04-12T12:25:46.831Z,83.05
2023-04-12T12:28:14.774Z,82.94
2023-04-12T12:33:46.875Z,82.95
2023-04-12T12:36:20.775Z,83.81
2023-04-12T12:38:52.892Z,84.09
2023-04-12T12:41:54.716Z,84.11
2023-04-12T12:44:24.001Z,84.22
2023-04-12T12:46:56.886Z,84.54
2023-04-12T12:49:30.776Z,83.90
2023-04-12T12:52:03.711Z,83.75
2023-04-12T12:54:40.198Z,84.11
2023-04-12T13:00:01.362Z,85.99
2023-04-12T13:02:28.959Z,84.40
2023-04-12T13:04:57.286Z,84.75
2023-04-12T13:07:24.686Z,84.52
2023-04-12T13:09:52.706Z,85.37
2023-04-12T13:12:24.706Z,86.03
2023-04-12T13:15:00.331Z,85.47
2023-04-12T13:17:41.253Z,85.72
2023-04-12T13:20:09.456Z,86.98
2023-04-12T13:22:36.913Z,86.47
2023-04-12T13:25:10.050Z,86.93
2023-04-12T13:27:37.941Z,85.95
2023-04-12T13:30:05.526Z,86.65
2023-04-12T13:32:32.721Z,87.04
2023-04-12T13:35:06.525Z,86.12
2023-04-12T13:37:34.717Z,85.84
2023-04-12T13:40:03.626Z,85.70
2023-04-12T13:42:30.881Z,86.62
2023-04-12T13:44:58.867Z,86.27
2023-04-12T13:50:18.755Z,86.47
2023-04-12T13:52:46.670Z,85.77
2023-04-12T13:55:14.696Z,85.27
2023-04-12T13:57:43.270Z,86.13
2023-04-12T14:00:11.366Z,86.06
2023-04-12T14:02:39.143Z,85.13
2023-04-12T14:05:12.132Z,85.77
2023-04-12T14:07:47.808Z,85.71
2023-04-12T14:10:14.753Z,85.37
2023-04-12T14:12:46.858Z,85.76
2023-04-12T14:15:14.665Z,86.31
2023-04-12T14:17:42.835Z,86.06
2023-04-12T14:20:10.758Z,86.58
2023-04-12T14:22:38.756Z,86.69
2023-04-12T14:25:07.994Z,87.29
2023-04-12T14:27:35.670Z,87.05
2023-04-12T14:30:03.413Z,86.83
2023-04-12T14:32:30.896Z,86.48
2023-04-12T14:35:23.033Z,86.41
2023-04-12T14:37:50.677Z,86.78
2023-04-12T14:40:23.815Z,86.87
2023-04-12T14:42:50.802Z,86.12
2023-04-12T14:45:21.211Z,86.65
2023-04-12T14:50:38.527Z,86.79
2023-04-12T14:53:11.085Z,87.94
2023-04-12T14:55:38.675Z,87.44
2023-04-12T15:01:02.935Z,86.95
2023-04-12T15:03:33.457Z,86.64
2023-04-12T15:06:00.650Z,86.87
2023-04-12T15:08:29.525Z,86.99
2023-04-12T15:11:01.778Z,87.39
2023-04-12T15:13:33.361Z,87.51
2023-04-12T15:16:02.739Z,86.98
2023-04-12T15:18:30.748Z,87.19
2023-04-12T15:21:00.248Z,87.77
2023-04-12T15:23:28.719Z,87.38
2023-04-12T15:26:02.606Z,87.29
2023-04-12T15:28:36.745Z,88.06
2023-04-12T15:31:05.021Z,87.68
2023-04-12T15:36:50.948Z,87.78
2023-04-12T15:39:18.853Z,88.03
2023-04-12T15:44:38.719Z,87.62
2023-04-12T15:47:11.496Z,87.46
2023-04-12T15:49:44.882Z,87.32
2023-04-12T15:52:12.936Z,87.41
2023-04-12T15:54:48.797Z,87.51
2023-04-12T15:57:16.679Z,87.24
2023-04-12T15:59:44.693Z,87.45
2023-04-12T16:02:12.989Z,87.64
2023-04-12T16:04:50.737Z,87.26
2023-04-12T16:07:18.773Z,86.62
2023-04-12T16:09:50.682Z,87.56
2023-04-12T16:12:18.719Z,87.83
2023-04-12T16:14:51.377Z,87.27
2023-04-12T16:17:19.961Z,87.51
2023-04-12T16:20:21.236Z,87.67
2023-04-12T16:22:50.285Z,87.61
2023-04-12T16:25:18.938Z,87.33
2023-04-12T16:27:48.932Z,87.62
2023-04-12T16:30:17.073Z,87.31
2023-04-12T16:32:46.776Z,87.32
2023-04-12T16:35:16.180Z,87.71
2023-04-12T16:37:45.942Z,87.92
2023-04-12T16:42:57.718Z,87.58
2023-04-12T16:45:25.029Z,87.35
2023-04-12T16:51:04.655Z,87.30
2023-04-12T16:53:36.917Z,87.29
2023-04-12T16:56:05.903Z,87.46
2023-04-12T16:58:36.141Z,86.81
2023-04-12T17:01:37.604Z,87.19
2023-04-12T17:04:09.702Z,87.10
2023-04-12T17:06:44.268Z,87.28
2023-04-12T17:09:16.260Z,87.60
2023-04-12T17:11:48.861Z,87.41
2023-04-12T17:14:16.952Z,87.17
2023-04-12T17:17:16.279Z,87.51
2023-04-12T17:19:45.274Z,87.38
2023-04-12T17:22:13.668Z,86.74
2023-04-12T17:24:47.576Z,86.98
2023-04-12T17:27:42.553Z,86.54
2023-04-12T17:30:12.326Z,87.65
2023-04-12T17:35:37.046Z,87.47
2023-04-12T17:38:05.058Z,86.80
2023-04-12T17:40:32.806Z,87.07
2023-04-12T17:43:01.019Z,87.63
2023-04-12T17:45:28.760Z,87.55
2023-04-12T17:48:01.895Z,87.73
2023-04-12T17:50:29.248Z,87.92
2023-04-12T17:53:03.475Z,87.39
2023-04-12T17:55:57.205Z,87.63
2023-04-12T17:58:25.265Z,87.57
2023-04-12T18:01:02.633Z,87.38
2023-04-12T18:03:34.631Z,87.27
2023-04-12T18:06:04.229Z,87.06
2023-04-12T18:08:33.505Z,87.66
2023-04-12T18:13:55.023Z,87.84
2023-04-12T18:22:30.559Z,89.00
2023-04-12T18:33:46.501Z,87.93
2023-04-12T18:36:20.670Z,87.82
2023-04-12T18:47:30.330Z,88.25
2023-04-12T18:55:32.830Z,87.39
2023-04-12T19:00:56.871Z,87.33
2023-04-12T19:03:29.232Z,87.91
2023-04-12T19:05:58.726Z,87.15
2023-04-12T19:23:05.542Z,86.83
2023-04-12T19:39:19.470Z,87.92
2023-04-12T19:41:49.409Z,87.99
2023-04-12T19:44:17.580Z,87.71
2023-04-12T19:47:10.846Z,88.38
2023-04-12T19:52:28.672Z,88.50
2023-04-12T19:55:22.251Z,88.03
2023-04-12T19:57:57.496Z,88.68
2023-04-12T20:00:29.349Z,88.06
2023-04-12T20:02:57.300Z,87.87
2023-04-12T20:05:25.303Z,87.81
2023-04-12T20:07:55.474Z,87.42
2023-04-12T20:10:23.021Z,87.35
2023-04-12T20:13:16.228Z,87.45
2023-04-12T20:15:44.927Z,86.24
2023-04-12T20:18:13.516Z,86.42
2023-04-12T20:20:44.191Z,85.89
2023-04-12T20:23:14.051Z,85.20
2023-04-12T20:26:07.546Z,86.08
2023-04-12T20:28:34.804Z,85.66
2023-04-12T20:31:07.893Z,85.93
2023-04-12T20:33:35.252Z,85.48
2023-04-12T20:36:10.118Z,84.88
2023-04-12T20:38:39.157Z,84.90
2023-04-12T20:41:12.033Z,84.70
2023-04-12T20:43:46.596Z,84.49
2023-04-12T20:46:17.459Z,84.45
2023-04-12T20:48:53.224Z,84.32
2023-04-12T20:51:27.873Z,84.09
2023-04-12T20:54:02.188Z,83.82
2023-04-12T20:56:33.620Z,84.01
2023-04-12T20:59:05.961Z,83.89
2023-04-12T21:01:33.040Z,83.55
2023-04-12T21:04:10.915Z,83.56
2023-04-12T21:06:39.035Z,83.61
2023-04-12T21:09:08.455Z,83.64
2023-04-12T21:11:39.255Z,83.65
2023-04-12T21:14:09.665Z,83.42
2023-04-12T21:16:41.845Z,83.39
2023-04-12T21:21:51.474Z,83.29
2023-04-12T21:24:18.940Z,83.13
2023-04-12T21:27:00.612Z,83.55
2023-04-12T21:29:32.004Z,83.57
2023-04-12T21:32:02.264Z,83.36
2023-04-12T21:34:35.036Z,83.56
2023-04-12T21:37:04.234Z,83.79
2023-04-12T21:39:33.096Z,83.98
2023-04-12T21:42:06.013Z,83.72
2023-04-12T21:44:34.476Z,84.04
2023-04-12T21:47:27.565Z,84.54
2023-04-12T21:49:54.834Z,84.13
2023-04-12T21:52:27.572Z,84.11
2023-04-12T21:54:56.035Z,84.02
2023-04-12T21:57:23.050Z,84.08
2023-04-12T21:59:51.269Z,84.34
2023-04-12T22:02:48.319Z,84.53
2023-04-12T22:05:16.836Z,84.52
2023-04-12T22:07:45.233Z,84.39
2023-04-12T22:10:13.750Z,84.45
2023-04-12T22:12:41.020Z,84.98
2023-04-12T22:15:11.956Z,84.53
2023-04-12T22:20:33.897Z,84.24
2023-04-12T22:23:27.208Z,84.35
2023-04-12T22:26:00.019Z,84.43
2023-04-12T22:31:26.224Z,84.11
2023-04-12T22:33:55.317Z,84.07
2023-04-12T22:39:20.157Z,83.97
2023-04-12T22:41:50.174Z,83.90
2023-04-12T22:44:22.520Z,83.78
2023-04-12T22:52:42.824Z,84.07
2023-04-12T22:55:23.419Z,84.30
2023-04-12T22:57:51.015Z,84.42
2023-04-12T23:00:18.713Z,84.31
2023-04-12T23:02:47.969Z,84.39
2023-04-12T23:05:15.042Z,84.10
2023-04-12T23:07:43.695Z,84.21
2023-04-12T23:10:12.280Z,83.80
2023-04-12T23:13:10.309Z,84.21
2023-04-12T23:15:43.313Z,84.53
2023-04-12T23:18:11.276Z,85.18
2023-04-12T23:20:39.001Z,85.06
2023-04-12T23:23:07.425Z,84.74
2023-04-12T23:25:43.414Z,84.56
2023-04-12T23:28:22.739Z,84.51
2023-04-12T23:30:51.495Z,84.51
2023-04-12T23:33:20.617Z,84.41
2023-04-12T23:35:52.074Z,84.65
2023-04-12T23:38:26.244Z,85.01
2023-04-12T23:41:02.470Z,84.74
2023-04-12T23:43:32.727Z,84.63
2023-04-12T23:46:01.633Z,85.77
2023-04-12T23:48:29.614Z,84.73
2023-04-12T23:51:08.015Z,84.90
2023-04-12T23:54:00.948Z,85.06
2023-04-12T23:56:28.790Z,85.25
2023-04-12T23:58:56.752Z,84.66
